Time;durP1;ratioP1;P1;durP2;ratioP2;P2;SDS_P1;SDS_P2;PMS_P1;PMS_P2;Temp;Humidity;BMP_temperature;BMP_pressure;BME280_temperature;BME280_humidity;BME280_pressure;Samples;Min_cycle;Max_cycle;Signal;HPM_P1;HPM_P2
2023/12/22 00:01:09;;;;;;;138.32;100.28;;;19.40;77.30;;;;;;5022408;28;20025;-69
2023/12/22 00:03:34;;;;;;;141.98;99.82;;;19.40;77.30;;;;;;5021226;28;20021;-69
2023/12/22 00:06:00;;;;;;;139.30;97.53;;;19.30;77.30;;;;;;5019133;28;20022;-69
2023/12/22 00:08:25;;;;;;;140.38;99.65;;;19.30;77.20;;;;;;5018855;28;20553;-70
2023/12/22 00:10:51;;;;;;;136.55;97.32;;;19.30;77.20;;;;;;5021756;28;20029;-68
2023/12/22 00:13:17;;;;;;;142.95;94.35;;;19.40;77.30;;;;;;5022404;28;20028;-69
2023/12/22 00:15:42;;;;;;;132.50;94.38;;;19.30;77.40;;;;;;5020535;28;20022;-69
2023/12/22 00:18:08;;;;;;;129.30;93.57;;;19.30;77.30;;;;;;5022643;28;20026;-67
2023/12/22 00:20:34;;;;;;;135.43;99.53;;;19.30;77.30;;;;;;5022897;28;20018;-66
2023/12/22 00:23:00;;;;;;;130.85;94.55;;;19.30;77.50;;;;;;5025996;28;20147;-67
2023/12/22 00:25:25;;;;;;;132.80;90.47;;;19.30;77.50;;;;;;5025993;28;20028;-68
2023/12/22 00:27:51;;;;;;;127.50;91.80;;;19.30;77.60;;;;;;5022380;28;20029;-68
2023/12/22 00:30:17;;;;;;;127.88;92.70;;;19.40;77.80;;;;;;5022112;28;20029;-68
2023/12/22 00:32:42;;;;;;;130.43;90.40;;;19.40;77.80;;;;;;5024099;28;20053;-68
2023/12/22 00:35:08;;;;;;;125.25;90.78;;;19.30;77.60;;;;;;5025813;28;20014;-68
2023/12/22 00:37:34;;;;;;;126.70;89.75;;;19.40;77.70;;;;;;5024549;28;20486;-68
2023/12/22 00:39:59;;;;;;;122.63;90.10;;;19.40;77.60;;;;;;5022064;28;20018;-68
2023/12/22 00:42:28;;;;;;;130.80;89.38;;;19.40;77.60;;;;;;5022209;28;20376;-68
2023/12/22 00:44:53;;;;;;;122.53;85.75;;;19.40;77.60;;;;;;5017708;28;20026;-68
2023/12/22 00:47:19;;;;;;;123.50;87.07;;;19.40;77.70;;;;;;5025491;28;20023;-68
2023/12/22 00:49:45;;;;;;;117.15;86.55;;;19.40;77.60;;;;;;5024080;28;20040;-68
2023/12/22 00:52:10;;;;;;;122.65;87.60;;;19.40;77.70;;;;;;5025385;28;20026;-68
2023/12/22 00:54:36;;;;;;;114.88;84.00;;;19.40;77.70;;;;;;5023200;28;20033;-69
2023/12/22 00:57:01;;;;;;;115.03;85.00;;;19.40;77.70;;;;;;5025457;28;20017;-70
2023/12/22 00:59:27;;;;;;;116.88;82.68;;;19.30;77.70;;;;;;5024674;28;20402;-68
2023/12/22 01:01:53;;;;;;;119.97;83.57;;;19.30;77.60;;;;;;5022230;28;20487;-70
2023/12/22 01:04:18;;;;;;;116.40;83.90;;;19.30;77.80;;;;;;5021943;28;20022;-71
2023/12/22 01:06:44;;;;;;;116.63;83.53;;;19.30;77.80;;;;;;5031908;28;20022;-68
2023/12/22 01:09:10;;;;;;;113.53;82.25;;;19.30;77.70;;;;;;5024989;28;20021;-65
2023/12/22 01:11:35;;;;;;;115.60;83.15;;;19.30;77.80;;;;;;5023758;28;20029;-69
2023/12/22 01:14:01;;;;;;;112.25;81.90;;;19.30;77.60;;;;;;5021641;28;20704;-68
2023/12/22 01:16:27;;;;;;;117.90;81.82;;;19.30;77.70;;;;;;5027730;28;20029;-66
2023/12/22 01:18:52;;;;;;;117.95;82.22;;;19.30;77.80;;;;;;5024659;28;20022;-72
2023/12/22 01:21:18;;;;;;;111.65;79.65;;;19.30;77.50;;;;;;5030582;28;20041;-69
2023/12/22 01:23:44;;;;;;;116.82;79.85;;;19.40;77.80;;;;;;5022535;28;20040;-69
2023/12/22 01:26:09;;;;;;;109.07;76.78;;;19.40;77.50;;;;;;5021575;28;20044;-70
2023/12/22 01:28:35;;;;;;;112.05;78.05;;;19.40;77.50;;;;;;5020927;28;20076;-68
2023/12/22 01:31:01;;;;;;;108.78;75.55;;;19.30;77.60;;;;;;5024483;28;20029;-69
2023/12/22 01:33:27;;;;;;;110.40;75.57;;;19.40;77.50;;;;;;5024514;28;20478;-68
2023/12/22 01:35:53;;;;;;;108.68;74.05;;;19.40;77.50;;;;;;5021247;28;20033;-70
2023/12/22 01:38:19;;;;;;;107.95;74.03;;;19.40;77.90;;;;;;5021243;28;20045;-70
2023/12/22 01:40:44;;;;;;;113.07;75.07;;;19.40;77.80;;;;;;5023057;28;20041;-70
2023/12/22 01:43:10;;;;;;;102.72;72.47;;;19.40;77.40;;;;;;5030319;28;20501;-70
2023/12/22 01:45:35;;;;;;;105.00;72.72;;;19.40;77.90;;;;;;5025431;28;20022;-71
2023/12/22 01:48:02;;;;;;;110.43;75.22;;;19.40;77.80;;;;;;5028758;28;20038;-70
2023/12/22 01:50:28;;;;;;;100.65;72.18;;;19.40;78.00;;;;;;5025187;28;20028;-69
2023/12/22 01:52:54;;;;;;;105.57;70.43;;;19.40;78.00;;;;;;5024354;28;20021;-70
2023/12/22 01:55:21;;;;;;;102.25;71.18;;;19.40;78.00;;;;;;5024418;28;20101;-68
2023/12/22 01:57:47;;;;;;;104.43;68.32;;;19.40;78.30;;;;;;5021376;28;21437;-68
2023/12/22 02:00:14;;;;;;;100.53;69.85;;;19.40;78.30;;;;;;5020713;28;20054;-70
2023/12/22 02:02:42;;;;;;;96.80;65.75;;;19.40;78.00;;;;;;5022174;28;20104;-69
2023/12/22 02:05:11;;;;;;;95.93;66.68;;;19.40;77.90;;;;;;5024306;28;20029;-68
2023/12/22 02:07:39;;;;;;;105.65;67.35;;;19.40;78.00;;;;;;5022741;28;20017;-68
2023/12/22 02:10:09;;;;;;;97.85;67.60;;;19.40;77.90;;;;;;5020461;28;20018;-69
2023/12/22 02:12:36;;;;;;;104.82;67.22;;;19.40;78.00;;;;;;5021304;28;20105;-69
2023/12/22 02:15:02;;;;;;;99.65;68.40;;;19.40;77.90;;;;;;5024044;28;20033;-68
2023/12/22 02:17:37;;;;;;;92.45;66.65;;;19.40;78.00;;;;;;5023744;28;20016;-67
2023/12/22 02:20:04;;;;;;;95.38;66.65;;;19.40;77.90;;;;;;5020243;28;20072;-68
2023/12/22 02:22:29;;;;;;;97.00;66.88;;;19.40;77.90;;;;;;5020400;28;20045;-69
2023/12/22 02:24:55;;;;;;;100.28;65.85;;;19.30;77.90;;;;;;5023736;28;20052;-68
2023/12/22 02:27:48;;;;;;;100.85;67.57;;;19.30;77.90;;;;;;5023761;28;20026;-68
2023/12/22 02:30:24;;;;;;;95.38;65.55;;;19.40;77.80;;;;;;5020234;28;20566;-70
2023/12/22 02:32:54;;;;;;;97.18;66.63;;;19.40;77.90;;;;;;5023193;28;20056;-68
2023/12/22 02:35:23;;;;;;;97.75;67.68;;;19.30;77.90;;;;;;5023613;28;20101;-67
2023/12/22 02:37:50;;;;;;;94.72;67.43;;;19.40;77.90;;;;;;5020499;28;20032;-69
2023/12/22 02:40:17;;;;;;;92.60;66.47;;;19.30;77.90;;;;;;5026468;28;20072;-69
2023/12/22 02:42:46;;;;;;;96.53;66.65;;;19.30;78.00;;;;;;5023184;28;20449;-69
2023/12/22 02:45:17;;;;;;;95.35;64.97;;;19.30;78.00;;;;;;5023444;28;20040;-69
2023/12/22 02:47:42;;;;;;;98.00;67.03;;;19.30;78.00;;;;;;5020957;28;20112;-69
2023/12/22 02:50:09;;;;;;;97.78;66.60;;;19.30;78.00;;;;;;5022103;28;20579;-69
2023/12/22 02:52:35;;;;;;;97.20;67.32;;;19.30;78.10;;;;;;5023033;28;20026;-69
2023/12/22 02:55:01;;;;;;;92.60;67.03;;;19.30;78.10;;;;;;5023295;28;20049;-70
2023/12/22 02:57:26;;;;;;;93.38;65.15;;;19.30;78.30;;;;;;5023276;28;20489;-70
2023/12/22 02:59:52;;;;;;;92.05;64.78;;;19.30;78.50;;;;;;5019572;28;20097;-70
2023/12/22 03:02:18;;;;;;;94.68;64.10;;;19.20;78.10;;;;;;5019594;28;20022;-70
2023/12/22 03:04:43;;;;;;;90.57;65.07;;;19.30;78.30;;;;;;5022099;28;20156;-70
2023/12/22 03:07:09;;;;;;;92.45;63.22;;;19.30;78.20;;;;;;5031425;28;20045;-71
2023/12/22 03:09:34;;;;;;;89.78;63.67;;;19.20;78.20;;;;;;5028722;28;20022;-70
2023/12/22 03:12:03;;;;;;;89.03;63.28;;;19.30;78.20;;;;;;5019626;28;20652;-69
2023/12/22 03:14:33;;;;;;;90.07;62.28;;;19.20;78.00;;;;;;5019613;28;20014;-68
2023/12/22 03:17:06;;;;;;;86.15;64.32;;;19.20;78.20;;;;;;5022739;28;20489;-69
2023/12/22 03:19:32;;;;;;;90.00;64.53;;;19.20;78.00;;;;;;5021869;28;20490;-69
2023/12/22 03:21:58;;;;;;;87.18;61.50;;;19.20;78.10;;;;;;5019680;28;20018;-69
2023/12/22 03:24:24;;;;;;;88.28;62.65;;;19.20;78.10;;;;;;5019427;28;20029;-70
2023/12/22 03:26:50;;;;;;;85.45;59.65;;;19.20;78.10;;;;;;5029091;28;20136;-69
2023/12/22 03:29:17;;;;;;;83.13;59.08;;;19.20;78.00;;;;;;5022491;28;20549;-69
2023/12/22 03:31:43;;;;;;;83.40;60.05;;;19.20;78.10;;;;;;5011257;28;20025;-68
2023/12/22 03:34:08;;;;;;;87.65;60.13;;;19.20;78.00;;;;;;5019398;28;20108;-68
2023/12/22 03:36:34;;;;;;;84.72;59.38;;;19.20;77.90;;;;;;5026976;28;20013;-68
2023/12/22 03:39:00;;;;;;;84.68;59.47;;;19.20;78.00;;;;;;5022648;28;20434;-69
2023/12/22 03:41:25;;;;;;;77.13;57.17;;;19.20;77.90;;;;;;5022576;28;20104;-69
2023/12/22 03:43:51;;;;;;;83.50;58.67;;;19.20;78.00;;;;;;5019327;28;20097;-69
2023/12/22 03:46:17;;;;;;;82.50;58.25;;;19.20;78.00;;;;;;5019511;28;20507;-70
2023/12/22 03:48:42;;;;;;;83.93;57.72;;;19.20;78.00;;;;;;5023018;28;20088;-69
2023/12/22 03:51:10;;;;;;;76.70;56.17;;;19.10;77.90;;;;;;5027323;28;20458;-70
2023/12/22 03:53:36;;;;;;;79.40;56.47;;;19.20;77.90;;;;;;5025566;28;20033;-69
2023/12/22 03:56:01;;;;;;;80.35;55.28;;;19.20;77.90;;;;;;5024296;28;20029;-68
2023/12/22 03:58:27;;;;;;;79.30;54.30;;;19.20;78.00;;;;;;5024465;28;20533;-68
2023/12/22 04:00:53;;;;;;;78.28;55.25;;;19.10;77.90;;;;;;5012321;28;20014;-69
2023/12/22 04:03:18;;;;;;;80.15;54.15;;;19.20;78.00;;;;;;5036253;28;20013;-71
2023/12/22 04:05:44;;;;;;;76.72;54.60;;;19.20;78.20;;;;;;5025301;28;20018;-68
2023/12/22 04:08:09;;;;;;;78.03;55.00;;;19.20;78.40;;;;;;5023426;28;20021;-68
2023/12/22 04:10:35;;;;;;;71.93;52.00;;;19.20;78.10;;;;;;5023512;28;20018;-68
2023/12/22 04:13:00;;;;;;;74.65;51.53;;;19.20;78.00;;;;;;5026401;28;20116;-69
2023/12/22 04:15:26;;;;;;;75.78;51.40;;;19.20;77.90;;;;;;5026217;28;20396;-69
2023/12/22 04:17:52;;;;;;;76.82;52.20;;;19.20;78.00;;;;;;5022843;28;20109;-69
2023/12/22 04:20:17;;;;;;;75.20;52.25;;;19.20;78.10;;;;;;5021364;28;20065;-69
2023/12/22 04:22:43;;;;;;;70.63;51.53;;;19.20;78.20;;;;;;5024160;28;20026;-69
2023/12/22 04:25:08;;;;;;;71.38;51.00;;;19.20;78.10;;;;;;5034366;28;20027;-69
2023/12/22 04:27:35;;;;;;;72.82;50.50;;;19.20;78.10;;;;;;5023562;28;20580;-69
2023/12/22 04:30:01;;;;;;;71.70;51.72;;;19.20;78.10;;;;;;5028165;28;20044;-68
2023/12/22 04:32:26;;;;;;;71.05;49.60;;;19.20;78.20;;;;;;5030493;28;20393;-69
2023/12/22 04:34:52;;;;;;;68.25;48.72;;;19.10;78.40;;;;;;5032839;28;20025;-68
2023/12/22 04:37:17;;;;;;;68.75;49.90;;;19.10;78.20;;;;;;5025937;28;20060;-67
2023/12/22 04:39:43;;;;;;;74.30;50.42;;;19.10;78.30;;;;;;5028017;28;20087;-68
2023/12/22 04:42:09;;;;;;;68.47;48.30;;;19.10;78.40;;;;;;5022288;28;20514;-68
2023/12/22 04:44:34;;;;;;;76.65;50.20;;;19.10;78.70;;;;;;5021251;28;20033;-67
2023/12/22 04:47:00;;;;;;;70.65;49.60;;;19.20;78.60;;;;;;5025384;28;20097;-68
2023/12/22 04:49:26;;;;;;;68.85;48.15;;;19.10;78.60;;;;;;5026440;28;20033;-68
2023/12/22 04:51:51;;;;;;;66.85;47.47;;;19.10;78.60;;;;;;5025846;28;20032;-68
2023/12/22 04:54:17;;;;;;;67.38;48.25;;;19.10;78.60;;;;;;5022205;28;20042;-69
2023/12/22 04:56:42;;;;;;;65.38;46.08;;;19.10;78.60;;;;;;5024060;28;20026;-70
2023/12/22 04:59:08;;;;;;;65.88;47.28;;;19.10;78.50;;;;;;5025802;28;20428;-68
2023/12/22 05:01:34;;;;;;;64.00;46.20;;;19.10;78.50;;;;;;5023479;28;20494;-69
2023/12/22 05:04:01;;;;;;;66.93;47.70;;;19.10;78.50;;;;;;5027278;28;20186;-70
2023/12/22 05:06:28;;;;;;;65.57;46.25;;;19.10;78.50;;;;;;5025384;28;20026;-70
2023/12/22 05:08:54;;;;;;;64.43;46.13;;;19.10;78.40;;;;;;5019483;28;20017;-70
2023/12/22 05:11:20;;;;;;;60.83;43.88;;;19.10;78.40;;;;;;5025105;28;20026;-69
2023/12/22 05:13:45;;;;;;;59.70;43.30;;;19.10;78.30;;;;;;5022374;28;20025;-71
2023/12/22 05:16:11;;;;;;;63.38;44.13;;;19.10;78.20;;;;;;5021842;28;20523;-70
2023/12/22 05:18:37;;;;;;;58.13;41.72;;;19.10;78.30;;;;;;5022481;28;20022;-71
2023/12/22 05:21:03;;;;;;;61.55;43.00;;;19.10;78.30;;;;;;5023548;28;20108;-71
2023/12/22 05:23:29;;;;;;;60.05;42.55;;;19.10;78.30;;;;;;5018559;28;20021;-68
2023/12/22 05:25:55;;;;;;;60.78;41.72;;;19.10;78.20;;;;;;5021717;28;20444;-68
2023/12/22 05:28:20;;;;;;;59.70;41.10;;;19.10;78.20;;;;;;5021605;28;20025;-69
2023/12/22 05:30:47;;;;;;;58.75;42.17;;;19.10;78.10;;;;;;5023530;28;20092;-68
2023/12/22 05:33:12;;;;;;;58.75;41.13;;;19.10;78.10;;;;;;5020839;28;20100;-68
2023/12/22 05:35:38;;;;;;;59.22;42.65;;;19.10;78.30;;;;;;5028169;28;20044;-70
2023/12/22 05:38:04;;;;;;;57.85;41.00;;;19.10;78.10;;;;;;5003694;28;20022;-70
2023/12/22 05:40:31;;;;;;;60.20;40.85;;;19.10;78.00;;;;;;5021039;28;20031;-68
2023/12/22 05:42:56;;;;;;;56.33;41.05;;;19.10;78.10;;;;;;5024630;28;20033;-70
2023/12/22 05:45:24;;;;;;;61.08;41.38;;;19.10;78.10;;;;;;5024946;28;20028;-70
2023/12/22 05:47:49;;;;;;;62.47;40.55;;;19.10;78.20;;;;;;5020270;28;20403;-69
2023/12/22 05:50:15;;;;;;;59.00;39.47;;;19.10;78.20;;;;;;5025041;28;20036;-68
2023/12/22 05:52:42;;;;;;;59.95;40.60;;;19.10;78.00;;;;;;5024212;28;20033;-68
2023/12/22 05:55:08;;;;;;;55.53;37.05;;;19.10;78.00;;;;;;5024578;28;20028;-68
2023/12/22 05:57:34;;;;;;;55.03;38.78;;;19.10;78.20;;;;;;5006569;28;20390;-68
2023/12/22 06:00:00;;;;;;;54.30;37.45;;;19.10;78.00;;;;;;5020782;28;20044;-68
2023/12/22 06:02:25;;;;;;;52.35;37.15;;;19.10;78.10;;;;;;5021016;28;20153;-68
2023/12/22 06:04:51;;;;;;;54.85;37.10;;;19.10;78.00;;;;;;5025177;28;20096;-68
2023/12/22 06:07:16;;;;;;;51.67;36.75;;;19.10;78.10;;;;;;5025009;28;20021;-68
2023/12/22 06:09:42;;;;;;;55.97;37.22;;;19.10;78.10;;;;;;5020274;28;20084;-69
2023/12/22 06:12:08;;;;;;;51.63;37.20;;;19.10;77.90;;;;;;5022793;28;20036;-69
2023/12/22 06:14:34;;;;;;;53.15;35.42;;;19.10;78.10;;;;;;5021727;28;20020;-69
2023/12/22 06:17:00;;;;;;;54.97;37.55;;;19.00;78.00;;;;;;5022264;28;20048;-69
2023/12/22 06:19:28;;;;;;;48.42;35.05;;;19.10;78.10;;;;;;5030580;28;20048;-68
2023/12/22 06:21:54;;;;;;;51.95;35.88;;;19.00;78.00;;;;;;5020701;28;20024;-69
2023/12/22 06:24:19;;;;;;;51.17;35.95;;;19.00;78.00;;;;;;5021137;28;20092;-68
2023/12/22 06:26:45;;;;;;;46.50;33.63;;;19.10;77.90;;;;;;5022485;28;20030;-69
2023/12/22 06:29:11;;;;;;;48.33;35.03;;;19.00;77.90;;;;;;5023300;28;20075;-68
2023/12/22 06:31:36;;;;;;;45.85;33.60;;;19.00;77.80;;;;;;5021293;28;20091;-70
2023/12/22 06:34:02;;;;;;;46.22;33.20;;;19.00;77.90;;;;;;5023665;28;20475;-68
2023/12/22 06:36:29;;;;;;;45.95;32.20;;;19.00;77.80;;;;;;5038368;28;20025;-69
2023/12/22 06:38:55;;;;;;;45.25;31.88;;;19.00;77.80;;;;;;5014721;28;20343;-69
2023/12/22 06:41:25;;;;;;;46.22;32.67;;;19.00;77.80;;;;;;5029118;28;20016;-68
2023/12/22 06:43:51;;;;;;;45.47;32.03;;;19.00;77.90;;;;;;5022356;28;20033;-67
2023/12/22 06:46:18;;;;;;;47.67;32.83;;;19.00;77.90;;;;;;5023584;28;20026;-67
2023/12/22 06:48:44;;;;;;;42.72;31.30;;;19.00;77.90;;;;;;5028593;28;20116;-67
2023/12/22 06:51:27;;;;;;;39.78;30.60;;;19.10;77.90;;;;;;5024131;28;20109;-68
2023/12/22 06:53:55;;;;;;;45.33;31.63;;;19.00;77.80;;;;;;5026955;28;20018;-69
2023/12/22 06:56:23;;;;;;;42.88;30.65;;;19.10;77.80;;;;;;5017430;28;20494;-67
2023/12/22 06:58:50;;;;;;;40.67;29.73;;;19.00;77.70;;;;;;5018388;28;20491;-69
2023/12/22 07:01:20;;;;;;;40.83;29.92;;;19.00;77.70;;;;;;5016389;28;20443;-69
2023/12/22 07:03:47;;;;;;;44.65;30.13;;;19.00;77.70;;;;;;5011228;28;20103;-69
2023/12/22 07:06:14;;;;;;;43.22;31.02;;;19.10;77.70;;;;;;5016296;28;20579;-68
2023/12/22 07:08:40;;;;;;;59.92;30.65;;;19.00;77.60;;;;;;5014190;28;20118;-68
2023/12/22 07:11:07;;;;;;;48.38;31.38;;;19.00;77.60;;;;;;5014270;28;20041;-68
2023/12/22 07:13:32;;;;;;;45.30;29.00;;;19.00;77.70;;;;;;5008071;28;20025;-68
2023/12/22 07:15:58;;;;;;;46.88;30.00;;;19.00;78.10;;;;;;5013079;28;20083;-67
2023/12/22 07:18:25;;;;;;;44.92;29.75;;;19.00;77.80;;;;;;5013642;28;20452;-69
2023/12/22 07:20:50;;;;;;;55.30;31.30;;;19.00;77.90;;;;;;5009701;28;20018;-69
2023/12/22 07:23:16;;;;;;;44.70;29.85;;;19.00;77.80;;;;;;5010070;28;20024;-68
2023/12/22 07:25:42;;;;;;;46.53;29.52;;;19.00;77.80;;;;;;5018873;28;20102;-69
2023/12/22 07:28:07;;;;;;;40.50;29.55;;;19.00;77.80;;;;;;5021841;28;20018;-69
2023/12/22 07:30:33;;;;;;;39.60;28.33;;;19.00;77.70;;;;;;5021257;28;20017;-71
2023/12/22 07:32:59;;;;;;;48.35;30.27;;;19.00;77.60;;;;;;5027093;28;20021;-72
2023/12/22 07:35:24;;;;;;;45.17;29.38;;;19.00;77.60;;;;;;5014076;28;20687;-72
2023/12/22 07:37:50;;;;;;;53.92;24.30;;;19.00;77.50;;;;;;5008795;28;20041;-74
2023/12/22 07:40:16;;;;;;;34.72;17.85;;;19.00;73.00;;;;;;5009708;28;20116;-74
2023/12/22 07:42:42;;;;;;;26.67;11.90;;;18.40;65.90;;;;;;5009998;28;20030;-73
2023/12/22 07:45:09;;;;;;;17.17;8.60;;;;;;;;;;5009731;28;20105;-74
2023/12/22 07:47:36;;;;;;;16.55;6.93;;;;;;;;;;5018162;28;20052;-74
2023/12/22 07:50:02;;;;;;;16.92;6.05;;;;;;;;;;5009226;28;20084;-72
2023/12/22 07:52:28;;;;;;;14.52;5.68;;;;;;;;;;5017909;28;20045;-74
2023/12/22 07:54:54;;;;;;;10.18;3.90;;;;;;;;;;5013326;28;20100;-74
2023/12/22 07:57:20;;;;;;;11.60;4.30;;;;;;;;;;5027202;28;20021;-70
2023/12/22 07:59:46;;;;;;;19.85;9.98;;;;;;;;;;5026244;28;20029;-72
2023/12/22 08:02:12;;;;;;;26.25;15.30;;;;;;;;;;5027451;28;20084;-70
2023/12/22 08:04:38;;;;;;;31.77;19.23;;;;;;;;;;5021008;28;20029;-68
2023/12/22 08:07:04;;;;;;;26.45;16.67;;;;;;;;;;5032169;28;20071;-70
2023/12/22 08:09:30;;;;;;;27.02;16.20;;;;;;;;;;5020482;28;20098;-69
2023/12/22 08:11:56;;;;;;;26.83;15.75;;;;;;;;;;5028241;28;20022;-70
2023/12/22 08:14:22;;;;;;;26.05;15.00;;;;;;;;;;5025864;28;20813;-69
2023/12/22 08:16:48;;;;;;;27.48;15.65;;;;;;;;;;5018047;28;20022;-68
2023/12/22 08:19:14;;;;;;;29.92;17.70;;;;;;;;;;5032179;28;20320;-69
2023/12/22 08:21:40;;;;;;;32.33;17.00;;;;;;;;;;5028042;28;20036;-70
2023/12/22 08:24:06;;;;;;;31.67;18.70;;;;;;;;;;5018562;28;20041;-70
2023/12/22 08:26:32;;;;;;;29.00;17.88;;;;;;;;;;5022375;28;20805;-69
2023/12/22 08:28:58;;;;;;;34.80;18.63;;;;;;;;;;5008695;28;20092;-70
2023/12/22 08:31:24;;;;;;;29.92;16.92;;;;;;;;;;5009866;28;20049;-75
2023/12/22 08:33:50;;;;;;;5.57;3.65;;;;;;;;;;5017191;28;20018;-74
2023/12/22 08:36:16;;;;;;;2.22;1.48;;;17.80;53.90;;;;;;5016907;28;20029;-75
2023/12/22 08:38:42;;;;;;;0.57;0.52;;;;;;;;;;5028355;28;20159;-75
2023/12/22 08:41:08;;;;;;;0.70;0.60;;;;;;;;;;5024729;28;20033;-63
2023/12/22 08:43:34;;;;;;;5.75;1.67;;;;;;;;;;5032128;28;20037;-67
2023/12/22 08:46:00;;;;;;;5.10;1.05;;;;;;;;;;5028047;28;20105;-67
2023/12/22 08:48:26;;;;;;;9.60;1.00;;;;;;;;;;5012723;28;20112;-68
2023/12/22 08:50:52;;;;;;;4.32;0.93;;;;;;;;;;5014201;28;20109;-67
2023/12/22 08:53:18;;;;;;;17.35;1.63;;;;;;;;;;5019221;28;20045;-68
2023/12/22 08:55:44;;;;;;;3.58;0.95;;;;;;;;;;5015286;28;20030;-68
2023/12/22 08:58:10;;;;;;;2.95;1.08;;;;;;;;;;5029716;28;20018;-68
2023/12/22 09:00:36;;;;;;;3.47;0.90;;;;;;;;;;5031198;28;20093;-68
2023/12/22 09:03:02;;;;;;;5.75;1.10;;;;;;;;;;5025139;28;20517;-69
2023/12/22 09:05:28;;;;;;;4.78;1.40;;;;;;;;;;5025557;28;20119;-68
2023/12/22 09:07:54;;;;;;;3.72;1.17;;;;;;;;;;5026371;28;20410;-68
2023/12/22 09:10:20;;;;;;;2.95;1.67;;;;;;;;;;5023951;28;20030;-68
2023/12/22 09:12:46;;;;;;;1.75;1.10;;;;;;;;;;5025890;28;20087;-68
2023/12/22 09:15:13;;;;;;;2.58;1.48;;;;;;;;;;5025528;28;20025;-68
2023/12/22 09:17:38;;;;;;;3.00;1.33;;;18.00;67.80;;;;;;5021307;28;20487;-68
2023/12/22 09:20:05;;;;;;;1.83;1.13;;;18.00;68.20;;;;;;5023347;28;20029;-68
2023/12/22 09:22:30;;;;;;;1.95;1.15;;;18.00;68.10;;;;;;5024970;28;20526;-68
2023/12/22 09:24:56;;;;;;;3.88;1.67;;;18.10;68.10;;;;;;5015056;28;20132;-69
2023/12/22 09:27:21;;;;;;;5.70;1.52;;;18.20;68.10;;;;;;5022944;28;20034;-68
2023/12/22 09:29:47;;;;;;;4.35;1.30;;;18.30;68.00;;;;;;5020959;28;20100;-68
2023/12/22 09:32:13;;;;;;;1.77;1.10;;;18.40;67.80;;;;;;5018571;28;20727;-69
2023/12/22 09:34:40;;;;;;;4.03;1.50;;;18.50;67.80;;;;;;5027243;28;20521;-68
2023/12/22 09:37:05;;;;;;;3.78;1.60;;;18.50;67.70;;;;;;5022097;28;20108;-68
2023/12/22 09:39:31;;;;;;;11.50;2.10;;;18.50;67.80;;;;;;5021478;28;20092;-68
2023/12/22 09:41:56;;;;;;;6.88;2.72;;;18.60;68.00;;;;;;5022020;28;20858;-69
2023/12/22 09:44:22;;;;;;;7.15;2.90;;;18.70;68.00;;;;;;5016108;28;20026;-68
2023/12/22 09:46:52;;;;;;;7.40;2.42;;;18.70;68.10;;;;;;5012547;28;20036;-68
2023/12/22 09:49:18;;;;;;;6.95;3.05;;;18.80;68.10;;;;;;5015083;28;20034;-72
2023/12/22 09:51:45;;;;;;;7.07;3.03;;;18.80;68.10;;;;;;5016316;28;20029;-68
2023/12/22 09:54:13;;;;;;;6.63;2.95;;;18.90;68.00;;;;;;5017967;28;20029;-69
2023/12/22 09:56:42;;;;;;;7.57;3.35;;;19.00;68.10;;;;;;5015922;28;20105;-69
2023/12/22 09:59:14;;;;;;;8.98;2.90;;;19.00;68.20;;;;;;5018166;28;20033;-67
2023/12/22 10:01:51;;;;;;;6.97;3.15;;;19.00;68.10;;;;;;5011991;28;20569;-69
2023/12/22 10:04:16;;;;;;;9.13;3.30;;;19.00;68.20;;;;;;5026259;28;20483;-69
2023/12/22 10:06:42;;;;;;;22.83;3.85;;;19.00;68.20;;;;;;5023201;28;20053;-67
2023/12/22 10:09:11;;;;;;;5.68;3.05;;;19.00;68.30;;;;;;5017711;28;20456;-68
2023/12/22 10:11:37;;;;;;;8.18;4.25;;;19.00;68.30;;;;;;5012569;28;20546;-68
2023/12/22 10:14:04;;;;;;;7.68;3.00;;;19.10;68.30;;;;;;5030940;28;20021;-69
2023/12/22 10:16:30;;;;;;;33.75;6.18;;;19.10;68.50;;;;;;5020687;28;20030;-68
2023/12/22 10:18:55;;;;;;;30.63;6.70;;;19.10;69.70;;;;;;5015800;28;20021;-70
2023/12/22 10:21:21;;;;;;;17.30;5.85;;;19.20;72.10;;;;;;5024097;28;20088;-70
2023/12/22 10:23:47;;;;;;;28.75;4.72;;;19.20;72.00;;;;;;5011474;28;20033;-69
2023/12/22 10:26:12;;;;;;;22.45;4.65;;;19.30;72.20;;;;;;5011918;28;20076;-71
2023/12/22 10:28:38;;;;;;;21.25;5.18;;;19.30;73.40;;;;;;5019759;28;20095;-68
2023/12/22 10:31:06;;;;;;;16.50;4.47;;;19.30;72.60;;;;;;5021187;28;20037;-70
2023/12/22 10:33:32;;;;;;;16.80;4.03;;;19.30;72.30;;;;;;5014230;28;20021;-70
2023/12/22 10:36:01;;;;;;;26.05;4.72;;;19.30;72.20;;;;;;5011527;28;20030;-70
2023/12/22 10:38:33;;;;;;;14.85;4.72;;;19.30;72.30;;;;;;5010770;28;20025;-70
2023/12/22 10:40:59;;;;;;;18.52;5.15;;;19.30;72.50;;;;;;5010917;28;20014;-70
2023/12/22 10:43:25;;;;;;;12.65;4.22;;;19.40;72.70;;;;;;5011332;28;20119;-70
2023/12/22 10:45:52;;;;;;;9.43;3.97;;;19.40;72.80;;;;;;5019210;28;20131;-69
2023/12/22 10:48:18;;;;;;;16.80;4.97;;;19.40;72.50;;;;;;5024043;28;20036;-68
2023/12/22 10:50:44;;;;;;;17.65;4.75;;;19.40;72.80;;;;;;5018647;28;20022;-68
2023/12/22 10:53:11;;;;;;;11.70;4.00;;;19.30;72.90;;;;;;5011154;28;20160;-69
2023/12/22 10:55:36;;;;;;;20.90;4.00;;;19.40;73.10;;;;;;5017289;28;20434;-68
2023/12/22 10:58:05;;;;;;;14.82;4.05;;;19.30;73.00;;;;;;5028075;28;20029;-69
2023/12/22 11:00:33;;;;;;;9.15;3.67;;;19.40;73.00;;;;;;5026692;28;20101;-67
2023/12/22 11:03:04;;;;;;;11.27;4.40;;;19.40;72.90;;;;;;5018828;28;20029;-69
2023/12/22 11:05:33;;;;;;;9.38;3.78;;;19.40;72.90;;;;;;5018493;28;20426;-66
2023/12/22 11:08:02;;;;;;;11.20;3.88;;;19.30;72.90;;;;;;5009048;28;20850;-69
2023/12/22 11:10:29;;;;;;;9.88;3.88;;;19.30;72.90;;;;;;5017531;28;20100;-69
2023/12/22 11:12:57;;;;;;;10.43;4.25;;;19.30;72.60;;;;;;5020088;28;20105;-69
2023/12/22 11:15:24;;;;;;;10.73;3.60;;;19.30;72.70;;;;;;5014860;28;20025;-70
2023/12/22 11:17:51;;;;;;;10.85;3.92;;;19.30;72.60;;;;;;5000571;28;20160;-70
2023/12/22 11:20:18;;;;;;;10.68;3.65;;;19.30;72.60;;;;;;5018128;28;20084;-66
2023/12/22 11:22:45;;;;;;;9.38;3.88;;;19.30;72.70;;;;;;5012338;28;20092;-70
2023/12/22 11:25:10;;;;;;;10.15;3.85;;;19.30;72.70;;;;;;5016234;28;20586;-69
2023/12/22 11:27:37;;;;;;;11.35;2.92;;;19.40;73.00;;;;;;5016225;28;20018;-69
2023/12/22 11:30:08;;;;;;;13.90;3.50;;;19.30;72.90;;;;;;5010528;28;20017;-69
2023/12/22 11:32:34;;;;;;;17.42;3.92;;;19.30;73.10;;;;;;5012635;28;20518;-68
2023/12/22 11:35:00;;;;;;;14.57;3.42;;;19.30;73.30;;;;;;5025521;28;20101;-68
2023/12/22 11:37:25;;;;;;;5.10;2.90;;;19.20;73.30;;;;;;5017787;28;20101;-69
2023/12/22 11:39:52;;;;;;;7.43;3.33;;;19.20;73.30;;;;;;5018086;28;20018;-67
2023/12/22 11:42:27;;;;;;;10.90;3.40;;;19.20;73.40;;;;;;5024979;28;20025;-67
2023/12/22 11:44:54;;;;;;;13.98;3.70;;;19.20;73.50;;;;;;5018092;28;20487;-68
2023/12/22 11:47:23;;;;;;;7.80;2.88;;;19.20;73.50;;;;;;5016949;28;20029;-68
2023/12/22 11:49:50;;;;;;;8.77;3.05;;;19.20;73.60;;;;;;5010487;28;20380;-68
2023/12/22 11:52:17;;;;;;;11.63;3.70;;;19.20;73.70;;;;;;5013570;28;20037;-69
2023/12/22 11:54:48;;;;;;;7.90;2.85;;;19.20;73.70;;;;;;5010087;28;20022;-68
2023/12/22 11:57:33;;;;;;;9.80;3.90;;;19.20;73.90;;;;;;5015608;28;20101;-69
2023/12/22 12:00:09;;;;;;;12.75;6.38;;;19.20;74.00;;;;;;5009776;28;20065;-68
2023/12/22 12:02:36;;;;;;;12.27;8.63;;;19.20;74.10;;;;;;5018147;28;20022;-68
2023/12/22 12:05:03;;;;;;;20.50;11.57;;;19.10;74.20;;;;;;5022275;28;20026;-69
2023/12/22 12:08:06;;;;;;;20.02;13.55;;;19.10;74.40;;;;;;5021501;28;20045;-67
2023/12/22 12:10:31;;;;;;;25.77;14.85;;;19.10;74.70;;;;;;4998929;28;20057;-67
2023/12/22 12:13:09;;;;;;;20.75;14.10;;;19.10;74.90;;;;;;5016164;28;20064;-68
2023/12/22 12:15:36;;;;;;;28.48;18.08;;;19.20;75.00;;;;;;5025148;28;20018;-69
2023/12/22 12:18:03;;;;;;;29.52;20.35;;;19.10;75.20;;;;;;5025082;28;20017;-68
2023/12/22 12:20:29;;;;;;;29.60;20.17;;;19.20;75.90;;;;;;5032909;28;20021;-66
2023/12/22 12:22:55;;;;;;;29.85;18.25;;;19.10;76.10;;;;;;5016881;28;20062;-68
2023/12/22 12:25:28;;;;;;;26.45;16.27;;;19.20;76.40;;;;;;5018424;28;20026;-69
2023/12/22 12:28:06;;;;;;;23.45;15.18;;;19.10;76.10;;;;;;5013732;28;20026;-69
2023/12/22 12:30:35;;;;;;;18.48;13.45;;;19.20;76.30;;;;;;5014610;28;20513;-68
2023/12/22 12:33:11;;;;;;;18.55;12.00;;;19.20;76.40;;;;;;5018945;28;20487;-69
2023/12/22 12:35:38;;;;;;;19.85;11.73;;;19.20;75.70;;;;;;5026320;28;20021;-69
2023/12/22 12:38:04;;;;;;;25.35;11.88;;;19.20;75.70;;;;;;5031416;28;20018;-68